createdAt,value
2023-05-05T00:00:33.241Z,2.96
2023-05-05T00:01:33.347Z,2.82
2023-05-05T00:02:33.365Z,2.62
2023-05-05T00:03:33.399Z,2.58
2023-05-05T00:04:33.369Z,2.69
2023-05-05T00:05:33.418Z,2.87
2023-05-05T00:06:33.440Z,2.98
2023-05-05T00:07:33.459Z,3.18
2023-05-05T00:08:33.501Z,3.11
2023-05-05T00:09:33.566Z,3.27
2023-05-05T00:10:33.587Z,3.35
2023-05-05T00:11:33.646Z,3.20
2023-05-05T00:12:33.684Z,3.24
2023-05-05T00:13:33.693Z,3.19
2023-05-05T00:14:33.737Z,3.29
2023-05-05T00:15:33.763Z,3.44
2023-05-05T00:16:33.791Z,3.49
2023-05-05T00:17:33.884Z,3.24
2023-05-05T00:18:33.861Z,3.21
2023-05-05T00:19:33.872Z,3.35
2023-05-05T00:20:33.902Z,3.44
2023-05-05T00:21:33.931Z,3.37
2023-05-05T00:22:33.946Z,3.42
2023-05-05T00:23:33.998Z,3.31
2023-05-05T00:24:34.021Z,3.35
2023-05-05T00:25:34.038Z,3.25
2023-05-05T00:26:34.086Z,3.19
2023-05-05T00:27:34.114Z,3.27
2023-05-05T00:28:34.143Z,3.39
2023-05-05T00:29:34.190Z,3.51
2023-05-05T00:30:34.261Z,3.50
2023-05-05T00:31:34.350Z,3.29
2023-05-05T00:32:34.437Z,3.23
2023-05-05T00:33:34.533Z,3.28
2023-05-05T00:34:34.507Z,3.22
2023-05-05T00:35:34.602Z,2.90
2023-05-05T00:36:34.634Z,3.15
2023-05-05T00:37:34.672Z,3.05
2023-05-05T00:38:34.731Z,2.93
2023-05-05T00:39:34.817Z,2.85
2023-05-05T00:40:34.846Z,2.80
2023-05-05T00:41:34.901Z,2.70
2023-05-05T00:42:34.914Z,2.82
2023-05-05T00:43:34.944Z,2.79
2023-05-05T00:44:34.994Z,2.67
2023-05-05T00:45:35.046Z,2.60
2023-05-05T00:46:35.108Z,2.57
2023-05-05T00:47:35.160Z,2.41
2023-05-05T00:48:35.179Z,2.32
2023-05-05T00:49:35.232Z,2.22
2023-05-05T00:50:35.238Z,2.14
2023-05-05T00:51:35.256Z,1.93
2023-05-05T00:52:35.293Z,1.79
2023-05-05T00:53:35.351Z,1.68
2023-05-05T00:54:35.383Z,1.56
2023-05-05T00:55:35.425Z,1.51
2023-05-05T00:56:35.437Z,1.48
2023-05-05T00:57:35.503Z,1.45
2023-05-05T00:58:35.533Z,1.47
2023-05-05T00:59:35.540Z,1.51
2023-05-05T01:00:35.578Z,1.64
2023-05-05T01:01:35.638Z,1.71
2023-05-05T01:02:35.704Z,1.79
2023-05-05T01:03:35.750Z,1.85
2023-05-05T01:04:35.728Z,1.94
2023-05-05T01:05:35.751Z,2.12
2023-05-05T01:06:35.780Z,2.52
2023-05-05T01:07:35.814Z,2.90
2023-05-05T01:08:35.832Z,3.23
2023-05-05T01:09:35.885Z,3.31
2023-05-05T01:10:35.902Z,3.61
2023-05-05T01:11:35.917Z,3.93
2023-05-05T01:12:36.029Z,3.94
2023-05-05T01:13:35.997Z,4.00
2023-05-05T01:14:36.021Z,3.77
2023-05-05T01:15:36.046Z,3.77
2023-05-05T01:16:36.124Z,3.83
2023-05-05T01:17:36.115Z,4.19
2023-05-05T01:18:36.116Z,3.68
2023-05-05T01:19:36.153Z,3.78
2023-05-05T01:20:36.206Z,3.90
2023-05-05T01:21:36.213Z,3.59
2023-05-05T01:22:36.438Z,3.57
2023-05-05T01:23:36.246Z,3.81
2023-05-05T01:24:36.250Z,3.78
2023-05-05T01:25:36.283Z,3.78
2023-05-05T01:26:36.340Z,3.72
2023-05-05T01:27:36.364Z,3.79
2023-05-05T01:28:36.368Z,3.76
2023-05-05T01:29:36.407Z,3.87
2023-05-05T01:30:36.425Z,3.90
2023-05-05T01:31:36.543Z,3.98
2023-05-05T01:32:36.492Z,3.91
2023-05-05T01:33:36.486Z,4.05
2023-05-05T01:34:36.542Z,3.90
2023-05-05T01:35:36.592Z,4.01
2023-05-05T01:36:36.620Z,4.05
2023-05-05T01:37:36.617Z,4.05
2023-05-05T01:38:36.663Z,4.06
2023-05-05T01:39:36.706Z,3.97
2023-05-05T01:40:36.707Z,4.02
2023-05-05T01:41:36.745Z,4.09
2023-05-05T01:42:36.861Z,4.07
2023-05-05T01:43:36.769Z,4.06
2023-05-05T01:44:36.789Z,4.09
2023-05-05T01:45:36.895Z,4.01
2023-05-05T01:46:36.960Z,4.06
2023-05-05T01:47:36.868Z,4.07
2023-05-05T01:48:36.883Z,4.11
2023-05-05T01:49:36.901Z,4.13
2023-05-05T01:50:36.934Z,4.16
2023-05-05T01:51:36.941Z,4.35
2023-05-05T01:52:36.971Z,4.28
2023-05-05T01:53:36.991Z,4.15
2023-05-05T01:54:37.013Z,4.23
2023-05-05T01:55:37.026Z,4.20
2023-05-05T01:56:37.033Z,4.21
2023-05-05T01:57:37.079Z,4.23
2023-05-05T01:58:37.068Z,4.32
2023-05-05T01:59:37.085Z,4.18
2023-05-05T02:00:37.106Z,4.30
2023-05-05T02:01:37.178Z,4.38
2023-05-05T02:02:37.202Z,4.31
2023-05-05T02:03:37.177Z,4.32
2023-05-05T02:04:37.187Z,4.40
2023-05-05T02:05:37.182Z,4.55
2023-05-05T02:06:37.220Z,4.37
2023-05-05T02:07:37.236Z,4.32
2023-05-05T02:08:37.261Z,4.39
2023-05-05T02:09:37.277Z,4.35
2023-05-05T02:10:37.302Z,4.34
2023-05-05T02:11:37.314Z,4.34
2023-05-05T02:12:37.382Z,4.34
2023-05-05T02:13:37.406Z,4.42
2023-05-05T02:14:37.356Z,4.44
2023-05-05T02:15:37.413Z,4.42
2023-05-05T02:16:37.418Z,4.39
2023-05-05T02:17:37.457Z,4.50
2023-05-05T02:18:37.511Z,4.35
2023-05-05T02:19:37.558Z,4.44
2023-05-05T02:20:37.557Z,4.62
2023-05-05T02:21:37.612Z,4.52
2023-05-05T02:22:37.623Z,4.60
2023-05-05T02:23:37.648Z,4.48
2023-05-05T02:24:37.656Z,4.54
2023-05-05T02:25:37.689Z,4.49
2023-05-05T02:26:37.712Z,4.45
2023-05-05T02:27:37.722Z,4.51
2023-05-05T02:28:37.815Z,4.49
2023-05-05T02:29:37.753Z,4.46
2023-05-05T02:30:37.772Z,4.64
2023-05-05T02:31:37.859Z,4.49
2023-05-05T02:32:37.908Z,4.42
2023-05-05T02:33:37.949Z,4.57
2023-05-05T02:34:38.015Z,4.54
2023-05-05T02:35:38.084Z,4.49
2023-05-05T02:36:38.127Z,4.45
2023-05-05T02:37:38.197Z,4.36
2023-05-05T02:38:38.249Z,4.45
2023-05-05T02:39:38.296Z,4.50
2023-05-05T02:40:38.368Z,4.41
2023-05-05T02:41:38.416Z,4.52
2023-05-05T02:42:38.418Z,4.61
2023-05-05T02:43:38.417Z,4.67
2023-05-05T02:44:38.558Z,4.51
2023-05-05T02:45:38.448Z,4.55
2023-05-05T02:46:38.556Z,4.57
2023-05-05T02:47:38.570Z,4.54
2023-05-05T02:48:38.547Z,4.54
2023-05-05T02:49:38.645Z,4.52
2023-05-05T02:50:38.666Z,4.60
2023-05-05T02:51:38.672Z,4.48
2023-05-05T02:52:38.720Z,4.46
2023-05-05T02:53:38.697Z,4.62
2023-05-05T02:54:38.717Z,4.48
2023-05-05T02:55:38.735Z,4.48
2023-05-05T02:56:38.754Z,4.47
2023-05-05T02:57:38.831Z,4.67
2023-05-05T02:58:38.804Z,4.69
2023-05-05T02:59:38.809Z,4.65
2023-05-05T03:00:38.820Z,4.58
2023-05-05T03:01:38.999Z,4.63
2023-05-05T03:02:38.979Z,4.72
2023-05-05T03:03:39.103Z,4.64
2023-05-05T03:04:38.865Z,4.50
2023-05-05T03:05:38.883Z,4.55
2023-05-05T03:06:38.901Z,4.50
2023-05-05T03:07:38.939Z,4.40
2023-05-05T03:08:38.932Z,4.74
2023-05-05T03:09:38.947Z,4.48
2023-05-05T03:10:38.953Z,4.57
2023-05-05T03:11:38.982Z,4.61
2023-05-05T03:12:39.033Z,4.66
2023-05-05T03:13:38.992Z,4.71
2023-05-05T03:14:39.020Z,4.52
2023-05-05T03:15:39.006Z,4.54
2023-05-05T03:16:39.094Z,4.36
2023-05-05T03:17:39.087Z,4.44
2023-05-05T03:18:39.069Z,4.37
2023-05-05T03:19:39.074Z,4.43
2023-05-05T03:20:39.078Z,4.55
2023-05-05T03:21:39.090Z,4.61
2023-05-05T03:22:39.119Z,4.45
2023-05-05T03:23:39.140Z,4.44
2023-05-05T03:24:39.173Z,4.36
2023-05-05T03:25:39.167Z,4.35
2023-05-05T03:26:39.224Z,4.31
2023-05-05T03:27:39.276Z,4.31
2023-05-05T03:28:39.320Z,4.24
2023-05-05T03:29:41.028Z,4.19
2023-05-05T03:30:39.439Z,4.23
2023-05-05T03:31:39.580Z,4.27
2023-05-05T03:32:39.620Z,4.45
2023-05-05T03:33:39.618Z,4.36
2023-05-05T03:34:39.659Z,4.35
2023-05-05T03:35:39.732Z,4.31
2023-05-05T03:36:39.779Z,4.36
2023-05-05T03:37:39.876Z,4.37
2023-05-05T03:38:39.889Z,4.38
2023-05-05T03:39:39.898Z,4.38
2023-05-05T03:40:44.186Z,4.37
2023-05-05T03:41:39.926Z,4.37
2023-05-05T03:42:39.910Z,4.37
2023-05-05T03:43:39.896Z,4.38
2023-05-05T03:44:39.884Z,4.43
2023-05-05T03:45:39.903Z,4.44
2023-05-05T03:46:39.870Z,4.39
2023-05-05T03:47:39.902Z,4.44
2023-05-05T03:48:39.867Z,4.45
2023-05-05T03:49:39.868Z,4.41
2023-05-05T03:50:39.845Z,4.42
2023-05-05T03:51:39.837Z,4.53
2023-05-05T03:52:39.839Z,4.43
2023-05-05T03:53:39.806Z,4.38
2023-05-05T03:54:39.818Z,4.53
2023-05-05T03:55:39.806Z,4.48
2023-05-05T03:56:39.786Z,4.50
2023-05-05T03:57:39.813Z,4.51
2023-05-05T03:58:39.806Z,4.50
2023-05-05T03:59:39.809Z,4.44
2023-05-05T04:00:39.827Z,4.46
2023-05-05T04:01:39.895Z,4.43
2023-05-05T04:02:39.890Z,4.35
2023-05-05T04:03:39.942Z,4.40
2023-05-05T04:04:39.919Z,4.36
2023-05-05T04:05:39.994Z,4.46
2023-05-05T04:06:40.057Z,4.51
2023-05-05T04:07:40.094Z,4.58
2023-05-05T04:08:40.133Z,4.42
2023-05-05T04:09:40.154Z,4.39
2023-05-05T04:10:40.153Z,4.41
2023-05-05T04:11:40.221Z,4.45
2023-05-05T04:12:40.285Z,4.46
2023-05-05T04:13:40.277Z,4.33
2023-05-05T04:14:40.284Z,4.35
2023-05-05T04:15:40.291Z,4.43
2023-05-05T04:16:40.309Z,4.30
2023-05-05T04:17:40.347Z,4.47
2023-05-05T04:18:40.340Z,4.32
2023-05-05T04:19:40.362Z,4.41
2023-05-05T04:20:40.409Z,4.31
2023-05-05T04:21:40.424Z,4.26
2023-05-05T04:22:40.459Z,4.12
2023-05-05T04:23:40.520Z,4.25
2023-05-05T04:24:40.565Z,4.20
2023-05-05T04:25:40.634Z,4.24
2023-05-05T04:26:40.701Z,4.32
2023-05-05T04:27:40.717Z,4.27
2023-05-05T04:28:40.754Z,4.27
2023-05-05T04:29:40.751Z,4.26
2023-05-05T04:30:40.769Z,4.31
2023-05-05T04:31:40.864Z,4.29
2023-05-05T04:32:40.866Z,4.33
2023-05-05T04:33:40.837Z,4.35
2023-05-05T04:34:40.816Z,4.31
2023-05-05T04:35:40.838Z,4.30
2023-05-05T04:36:40.864Z,4.20
2023-05-05T04:37:40.923Z,4.19
2023-05-05T04:38:41.012Z,4.17
2023-05-05T04:39:41.044Z,4.11
2023-05-05T04:40:41.110Z,4.12
2023-05-05T04:41:41.143Z,4.21
2023-05-05T04:42:41.164Z,4.16
2023-05-05T04:43:41.135Z,4.11
2023-05-05T04:44:41.134Z,4.13
2023-05-05T04:45:41.156Z,4.11
2023-05-05T04:46:41.210Z,4.00
2023-05-05T04:47:41.189Z,4.17
2023-05-05T04:48:41.151Z,3.98
2023-05-05T04:49:41.159Z,3.98
2023-05-05T04:50:41.164Z,3.99
2023-05-05T04:51:41.182Z,4.05
2023-05-05T04:52:41.235Z,4.12
2023-05-05T04:53:41.311Z,4.03
2023-05-05T04:54:41.361Z,3.91
2023-05-05T04:55:41.397Z,3.90
2023-05-05T04:56:41.416Z,3.82
2023-05-05T04:57:41.423Z,3.83
2023-05-05T04:58:41.437Z,3.81
2023-05-05T04:59:41.444Z,3.74
2023-05-05T05:00:41.466Z,3.50
2023-05-05T05:01:41.528Z,3.37
2023-05-05T05:02:41.578Z,3.22
2023-05-05T05:03:41.720Z,3.04
2023-05-05T05:04:41.629Z,2.80
2023-05-05T05:05:41.682Z,2.73
2023-05-05T05:06:41.734Z,2.66
2023-05-05T05:07:41.758Z,2.60
2023-05-05T05:08:41.768Z,2.54
2023-05-05T05:09:41.785Z,2.49
2023-05-05T05:10:41.815Z,2.55
2023-05-05T05:11:41.822Z,2.57
2023-05-05T05:12:41.843Z,2.57
2023-05-05T05:13:41.821Z,2.53
2023-05-05T05:14:41.884Z,2.55
2023-05-05T05:15:41.877Z,2.59
2023-05-05T05:16:41.938Z,2.52
2023-05-05T05:17:41.942Z,2.51
2023-05-05T05:18:41.958Z,2.51
2023-05-05T05:19:41.997Z,2.53
2023-05-05T05:20:42.028Z,2.57
2023-05-05T05:21:42.067Z,2.65
2023-05-05T05:22:42.085Z,2.75
2023-05-05T05:23:42.132Z,2.88
2023-05-05T05:24:42.182Z,2.88
2023-05-05T05:25:42.186Z,3.23
2023-05-05T05:26:42.204Z,3.17
2023-05-05T05:27:42.224Z,2.99
2023-05-05T05:28:42.249Z,2.79
2023-05-05T05:29:42.324Z,2.95
2023-05-05T05:30:42.362Z,3.05
2023-05-05T05:31:42.495Z,3.10
2023-05-05T05:32:42.467Z,3.12
2023-05-05T05:33:42.589Z,3.35
2023-05-05T05:34:42.577Z,3.95
2023-05-05T05:35:42.637Z,4.33
2023-05-05T05:36:42.677Z,4.64
2023-05-05T05:37:42.715Z,5.04
2023-05-05T05:38:42.736Z,5.53
2023-05-05T05:39:43.756Z,6.24
2023-05-05T05:40:42.736Z,7.10
2023-05-05T05:41:42.799Z,7.63
2023-05-05T05:42:42.841Z,7.96
2023-05-05T05:43:43.061Z,8.55
2023-05-05T05:44:42.888Z,12.01
2023-05-05T05:45:43.046Z,12.32
2023-05-05T05:46:43.051Z,11.96
2023-05-05T05:47:42.983Z,12.08
2023-05-05T05:48:43.012Z,12.59
2023-05-05T05:49:43.034Z,13.45
2023-05-05T05:50:43.074Z,13.85
2023-05-05T05:51:43.124Z,15.43
2023-05-05T05:52:43.161Z,16.15
2023-05-05T05:53:43.208Z,17.40
2023-05-05T05:54:43.224Z,18.14
2023-05-05T05:55:43.256Z,18.65
2023-05-05T05:56:43.292Z,18.98
2023-05-05T05:57:43.299Z,18.79
2023-05-05T05:58:43.322Z,18.93
2023-05-05T05:59:43.341Z,19.11
2023-05-05T06:00:43.357Z,19.38
2023-05-05T06:01:43.357Z,19.93
2023-05-05T06:02:43.459Z,20.38
2023-05-05T06:03:43.672Z,20.49
2023-05-05T06:04:43.500Z,20.29
2023-05-05T06:05:43.535Z,20.13
2023-05-05T06:06:43.589Z,20.13
2023-05-05T06:07:43.569Z,20.63
2023-05-05T06:08:43.578Z,20.35
2023-05-05T06:09:43.654Z,20.35
2023-05-05T06:10:43.685Z,19.97
2023-05-05T06:11:43.698Z,19.91
2023-05-05T06:12:43.736Z,20.18
2023-05-05T06:13:43.733Z,20.26
2023-05-05T06:14:43.742Z,20.48
2023-05-05T06:15:43.782Z,20.93
2023-05-05T06:16:43.746Z,21.47
2023-05-05T06:17:43.795Z,20.89
2023-05-05T06:18:44.089Z,20.33
2023-05-05T06:19:43.759Z,20.05
2023-05-05T06:20:43.746Z,20.90
2023-05-05T06:21:43.769Z,20.43
2023-05-05T06:22:43.758Z,19.50
2023-05-05T06:23:43.799Z,19.68
2023-05-05T06:24:43.795Z,19.10
2023-05-05T06:25:43.813Z,19.17
2023-05-05T06:26:43.831Z,26.52
2023-05-05T06:27:43.824Z,27.30
2023-05-05T06:28:43.845Z,24.42
2023-05-05T06:29:43.847Z,22.69
2023-05-05T06:30:43.861Z,21.85
2023-05-05T06:31:44.121Z,20.34
2023-05-05T06:32:43.946Z,17.76
2023-05-05T06:33:43.939Z,13.04
2023-05-05T06:34:43.971Z,10.42
2023-05-05T06:35:43.992Z,9.69
2023-05-05T06:36:44.063Z,11.26
2023-05-05T06:37:44.069Z,12.17
2023-05-05T06:38:44.111Z,12.29
2023-05-05T06:39:44.155Z,19.15
2023-05-05T06:40:44.183Z,17.24
2023-05-05T06:41:44.233Z,11.95
2023-05-05T06:42:44.283Z,10.88
2023-05-05T06:43:44.600Z,18.37
2023-05-05T06:44:44.372Z,27.68
2023-05-05T06:45:44.431Z,30.87
2023-05-05T06:46:44.621Z,13.03
2023-05-05T06:47:44.612Z,11.10
2023-05-05T06:48:44.575Z,10.41
2023-05-05T06:49:44.642Z,12.61
2023-05-05T06:50:44.683Z,13.07
2023-05-05T06:51:44.736Z,13.79
2023-05-05T06:52:44.771Z,13.44
2023-05-05T06:53:45.105Z,13.74
2023-05-05T06:54:44.903Z,10.94
2023-05-05T06:55:44.900Z,8.71
2023-05-05T06:56:44.935Z,8.10
2023-05-05T06:57:44.985Z,7.87
2023-05-05T06:58:45.025Z,8.49
2023-05-05T06:59:45.073Z,9.38
2023-05-05T07:00:45.184Z,10.21
2023-05-05T07:01:45.165Z,10.27
2023-05-05T07:02:45.260Z,10.46
2023-05-05T07:03:45.326Z,10.54
2023-05-05T07:04:45.283Z,10.66
2023-05-05T07:05:45.271Z,10.56
2023-05-05T07:06:45.285Z,10.66
2023-05-05T07:07:45.281Z,10.38
2023-05-05T07:08:45.645Z,10.61
2023-05-05T07:09:45.288Z,11.42
2023-05-05T07:10:45.334Z,13.00
2023-05-05T07:11:45.595Z,12.82
2023-05-05T07:12:45.420Z,14.39
2023-05-05T07:13:45.406Z,14.64
2023-05-05T07:14:45.438Z,14.60
2023-05-05T07:15:45.461Z,16.32
2023-05-05T07:16:45.564Z,22.77
2023-05-05T07:17:45.536Z,34.15
2023-05-05T07:18:45.531Z,38.45
2023-05-05T07:19:45.599Z,28.56
2023-05-05T07:20:45.550Z,23.51
2023-05-05T07:21:45.559Z,22.50
2023-05-05T07:22:45.842Z,22.35
2023-05-05T07:23:45.573Z,19.25
2023-05-05T07:24:45.591Z,17.37
2023-05-05T07:25:45.626Z,15.91
2023-05-05T07:26:45.740Z,10.28
2023-05-05T07:27:45.722Z,5.99
2023-05-05T07:28:46.102Z,6.45
2023-05-05T07:29:45.787Z,5.95
2023-05-05T07:30:45.972Z,4.23
2023-05-05T07:31:46.178Z,4.67
2023-05-05T07:32:45.962Z,5.76
2023-05-05T07:33:45.866Z,6.12
2023-05-05T07:34:45.897Z,5.60
2023-05-05T07:35:45.907Z,5.48
2023-05-05T07:36:46.129Z,5.51
2023-05-05T07:37:45.918Z,5.68
2023-05-05T07:38:45.922Z,5.85
2023-05-05T07:39:45.918Z,6.10
2023-05-05T07:40:45.912Z,6.47
2023-05-05T07:41:45.950Z,6.69
2023-05-05T07:42:46.066Z,6.92
2023-05-05T07:43:46.094Z,6.78
2023-05-05T07:44:46.104Z,6.88
2023-05-05T07:45:46.127Z,6.75
2023-05-05T07:46:46.129Z,7.39
2023-05-05T07:47:46.215Z,7.29
2023-05-05T07:48:46.606Z,7.54
2023-05-05T07:49:46.180Z,7.72
2023-05-05T07:50:46.283Z,7.72
2023-05-05T07:51:46.302Z,7.61
2023-05-05T07:52:49.950Z,7.90
2023-05-05T07:53:47.341Z,7.82
2023-05-05T07:54:46.338Z,7.51
2023-05-05T07:55:46.349Z,7.43
2023-05-05T07:56:46.345Z,7.64
2023-05-05T07:57:46.332Z,7.31
2023-05-05T07:58:46.378Z,7.94
2023-05-05T07:59:46.331Z,8.83
2023-05-05T08:00:46.329Z,9.19
2023-05-05T08:01:46.628Z,9.26
2023-05-05T08:02:46.372Z,9.59
2023-05-05T08:03:46.375Z,9.38
2023-05-05T08:04:46.309Z,9.14
2023-05-05T08:05:46.282Z,10.00
2023-05-05T08:06:46.279Z,10.91
2023-05-05T08:07:46.257Z,10.70
2023-05-05T08:08:46.236Z,10.99
2023-05-05T08:09:46.638Z,11.15
2023-05-05T08:10:46.248Z,9.90
2023-05-05T08:11:46.231Z,9.45
2023-05-05T08:12:46.240Z,9.76
2023-05-05T08:13:46.308Z,5.34
2023-05-05T08:14:46.431Z,4.77
2023-05-05T08:15:46.403Z,4.79
2023-05-05T08:16:46.358Z,4.04
2023-05-05T08:17:46.639Z,2.78
2023-05-05T08:18:46.400Z,2.12
2023-05-05T08:19:46.651Z,1.51
2023-05-05T08:20:46.370Z,1.62
2023-05-05T08:21:46.371Z,1.66
2023-05-05T08:22:46.413Z,1.90
2023-05-05T08:23:46.661Z,2.14
2023-05-05T08:24:46.426Z,2.79
2023-05-05T08:25:46.453Z,2.91
2023-05-05T08:26:46.498Z,3.11
2023-05-05T08:27:46.563Z,3.52
2023-05-05T08:28:46.611Z,3.45
2023-05-05T08:29:46.624Z,3.67
2023-05-05T08:30:46.762Z,3.62
2023-05-05T08:31:46.801Z,3.84
2023-05-05T08:32:46.812Z,4.08
2023-05-05T08:33:46.849Z,3.51
2023-05-05T08:34:46.800Z,2.21
2023-05-05T08:35:46.803Z,2.26
2023-05-05T08:36:46.844Z,2.31
2023-05-05T08:37:46.828Z,2.56
2023-05-05T08:38:46.831Z,3.05
2023-05-05T08:39:46.894Z,3.37
2023-05-05T08:40:46.915Z,3.20
2023-05-05T08:41:46.975Z,3.16
2023-05-05T08:42:46.997Z,2.70
2023-05-05T08:43:47.040Z,2.87
2023-05-05T08:44:47.092Z,2.65
2023-05-05T08:45:47.142Z,2.55
2023-05-05T08:46:47.341Z,2.45
2023-05-05T08:47:47.661Z,2.65
2023-05-05T08:48:47.212Z,2.63
2023-05-05T08:49:47.232Z,2.86
2023-05-05T08:50:47.279Z,3.32
2023-05-05T08:51:47.492Z,3.68
2023-05-05T08:52:48.644Z,4.06
2023-05-05T08:53:47.451Z,3.78
2023-05-05T08:54:47.650Z,3.91
2023-05-05T08:55:47.548Z,4.17
2023-05-05T08:56:47.566Z,3.98
2023-05-05T08:57:47.632Z,3.66
2023-05-05T08:58:47.739Z,3.96
2023-05-05T08:59:47.665Z,3.78
2023-05-05T09:00:47.729Z,4.01
2023-05-05T09:01:47.738Z,3.94
2023-05-05T09:02:48.040Z,3.47
2023-05-05T09:03:47.852Z,4.25
2023-05-05T09:04:48.151Z,3.93
2023-05-05T09:05:47.932Z,3.93
2023-05-05T09:06:47.954Z,4.12
2023-05-05T09:07:48.013Z,4.68
2023-05-05T09:08:48.104Z,4.88
2023-05-05T09:09:48.133Z,4.91
2023-05-05T09:10:48.227Z,4.94
2023-05-05T09:11:48.244Z,5.26
2023-05-05T09:12:48.311Z,5.91
2023-05-05T09:13:48.371Z,6.14
2023-05-05T09:14:48.357Z,6.86
2023-05-05T09:15:48.320Z,6.57
2023-05-05T09:16:48.467Z,6.34
2023-05-05T09:17:48.617Z,6.76
2023-05-05T09:18:48.452Z,6.86
2023-05-05T09:19:48.452Z,7.15
2023-05-05T09:20:48.481Z,8.25
2023-05-05T09:21:48.536Z,8.36
2023-05-05T09:22:48.537Z,8.60
2023-05-05T09:23:48.608Z,9.53
2023-05-05T09:24:48.638Z,9.78
2023-05-05T09:25:48.742Z,9.61
2023-05-05T09:26:48.773Z,8.44
2023-05-05T09:27:48.820Z,7.75
2023-05-05T09:28:49.029Z,6.81
2023-05-05T09:29:48.878Z,5.73
2023-05-05T09:30:48.975Z,4.82
2023-05-05T09:31:48.959Z,4.96
2023-05-05T09:32:49.220Z,2.38
2023-05-05T09:33:49.053Z,2.77
2023-05-05T09:34:49.200Z,1.10
2023-05-05T09:35:49.092Z,0.63
2023-05-05T09:36:49.171Z,0.94
2023-05-05T09:37:49.153Z,1.19
2023-05-05T09:38:49.163Z,0.75
2023-05-05T09:39:49.244Z,0.68
2023-05-05T09:40:49.288Z,0.65
2023-05-05T09:41:49.284Z,0.63
2023-05-05T09:42:49.311Z,0.62
2023-05-05T09:43:49.325Z,0.66
2023-05-05T09:44:49.393Z,0.72
2023-05-05T09:45:49.418Z,0.89
2023-05-05T09:46:49.493Z,0.72
2023-05-05T09:47:49.569Z,0.72
2023-05-05T09:48:49.554Z,0.74
2023-05-05T09:49:49.535Z,0.74
2023-05-05T09:50:49.759Z,0.84
2023-05-05T09:51:49.625Z,0.85
2023-05-05T09:52:49.662Z,0.88
2023-05-05T09:53:49.764Z,0.93
2023-05-05T09:54:49.762Z,1.03
2023-05-05T09:55:49.783Z,1.05
2023-05-05T09:56:49.802Z,0.73
2023-05-05T09:57:49.794Z,0.70
2023-05-05T09:58:49.837Z,0.35
2023-05-05T09:59:49.857Z,0.67
2023-05-05T10:00:49.913Z,0.45
2023-05-05T10:01:49.927Z,0.51
2023-05-05T10:02:50.003Z,0.54
2023-05-05T10:03:49.983Z,0.50
2023-05-05T10:04:50.196Z,0.49
2023-05-05T10:05:50.099Z,0.80
2023-05-05T10:06:50.228Z,0.83
2023-05-05T10:07:50.201Z,1.04
2023-05-05T10:08:50.244Z,0.60
2023-05-05T10:09:50.303Z,0.50
2023-05-05T10:10:50.369Z,0.60
2023-05-05T10:11:50.443Z,0.69
2023-05-05T10:12:50.563Z,0.91
2023-05-05T10:13:50.521Z,0.83
2023-05-05T10:14:50.557Z,0.94
2023-05-05T10:15:50.604Z,0.88
2023-05-05T10:16:50.636Z,0.79
2023-05-05T10:18:02.193Z,1.02
2023-05-05T10:18:51.601Z,0.76
2023-05-05T10:19:50.602Z,0.75
2023-05-05T10:20:50.895Z,0.66
2023-05-05T10:21:50.702Z,0.70
2023-05-05T10:22:50.684Z,0.74
2023-05-05T10:23:50.593Z,0.84
2023-05-05T10:24:50.547Z,0.58
2023-05-05T10:25:50.553Z,0.64
2023-05-05T10:26:50.584Z,0.72
2023-05-05T10:27:50.540Z,0.72
2023-05-05T10:28:50.554Z,0.58
2023-05-05T10:29:50.532Z,0.51
2023-05-05T10:30:50.530Z,0.55
2023-05-05T10:31:50.550Z,0.61
2023-05-05T10:33:00.861Z,0.63
2023-05-05T10:33:51.593Z,0.63
2023-05-05T10:34:50.527Z,0.64
2023-05-05T10:35:50.494Z,0.71
2023-05-05T10:36:50.511Z,0.90
2023-05-05T10:37:50.502Z,1.47
2023-05-05T10:38:50.548Z,1.90
2023-05-05T10:39:50.477Z,1.84
2023-05-05T10:40:50.458Z,2.16
2023-05-05T10:41:50.472Z,2.09
2023-05-05T10:42:50.461Z,2.96
2023-05-05T10:43:50.458Z,3.09
2023-05-05T10:44:50.448Z,4.09
2023-05-05T10:45:50.523Z,4.60
2023-05-05T10:46:50.440Z,5.22
2023-05-05T10:47:50.560Z,5.87
2023-05-05T10:48:50.711Z,6.75
2023-05-05T10:49:50.611Z,6.35
2023-05-05T10:50:50.680Z,4.95
2023-05-05T10:51:50.656Z,5.62
2023-05-05T10:52:50.725Z,5.82
2023-05-05T10:53:50.773Z,5.50
2023-05-05T10:54:50.908Z,5.11
2023-05-05T10:55:50.834Z,4.73
2023-05-05T10:56:50.881Z,4.85
2023-05-05T10:57:50.907Z,4.48
2023-05-05T10:58:59.787Z,5.31
2023-05-05T10:59:52.214Z,5.34
2023-05-05T11:00:50.958Z,5.42
2023-05-05T11:01:50.991Z,5.69
2023-05-05T11:02:50.942Z,5.90
2023-05-05T11:03:50.961Z,7.05
2023-05-05T11:04:50.934Z,6.70
2023-05-05T11:05:50.896Z,6.83
2023-05-05T11:06:50.925Z,6.95
2023-05-05T11:07:50.880Z,6.35
2023-05-05T11:08:50.893Z,5.49
2023-05-05T11:09:51.209Z,5.60
2023-05-05T11:10:51.084Z,5.57
2023-05-05T11:11:50.865Z,4.97
2023-05-05T11:12:50.906Z,4.36
2023-05-05T11:13:50.863Z,5.06
2023-05-05T11:14:51.190Z,4.62
2023-05-05T11:15:50.861Z,4.91
2023-05-05T11:16:50.932Z,6.01
2023-05-05T11:17:50.908Z,6.51
2023-05-05T11:18:50.887Z,6.67
2023-05-05T11:19:51.212Z,6.81
2023-05-05T11:20:50.956Z,3.89
2023-05-05T11:21:51.132Z,3.95
2023-05-05T11:22:51.024Z,3.55
2023-05-05T11:23:51.121Z,3.10
2023-05-05T11:24:51.168Z,3.41
2023-05-05T11:25:51.212Z,2.95
2023-05-05T11:26:51.373Z,2.96
2023-05-05T11:27:51.305Z,2.67
2023-05-05T11:28:51.334Z,2.78
2023-05-05T11:29:52.137Z,2.57
2023-05-05T11:30:51.488Z,2.57
2023-05-05T11:31:51.473Z,1.88
2023-05-05T11:32:51.545Z,1.66
2023-05-05T11:33:51.557Z,1.51
2023-05-05T11:34:51.562Z,1.65
2023-05-05T11:35:51.545Z,1.84
2023-05-05T11:36:51.528Z,1.92
2023-05-05T11:37:51.521Z,1.84
2023-05-05T11:38:51.524Z,1.77
2023-05-05T11:39:51.509Z,1.89
2023-05-05T11:40:51.532Z,1.89
2023-05-05T11:41:51.548Z,1.79
2023-05-05T11:42:51.546Z,2.06
2023-05-05T11:43:51.576Z,2.25
2023-05-05T11:44:51.628Z,2.11
2023-05-05T11:45:51.693Z,2.16
2023-05-05T11:46:51.738Z,2.29
2023-05-05T11:47:51.808Z,2.62
2023-05-05T11:48:51.814Z,2.84
2023-05-05T11:49:51.832Z,2.79
2023-05-05T11:50:51.903Z,2.99
2023-05-05T11:51:51.939Z,2.74
2023-05-05T11:52:51.990Z,2.77
2023-05-05T11:53:52.021Z,2.95
2023-05-05T11:54:52.080Z,3.31
2023-05-05T11:55:52.104Z,3.17
2023-05-05T11:56:52.124Z,3.21
2023-05-05T11:57:52.142Z,3.13
2023-05-05T11:58:52.207Z,3.08
2023-05-05T11:59:52.163Z,3.15
2023-05-05T12:00:52.166Z,3.51
2023-05-05T12:01:52.195Z,3.43
2023-05-05T12:02:52.285Z,3.44
2023-05-05T12:03:52.466Z,3.34
2023-05-05T12:04:52.322Z,3.74
2023-05-05T12:05:52.244Z,3.64
2023-05-05T12:06:52.284Z,3.59
2023-05-05T12:07:52.280Z,3.76
2023-05-05T12:08:52.293Z,3.66
2023-05-05T12:09:52.329Z,3.84
2023-05-05T12:10:52.385Z,3.84
2023-05-05T12:11:52.414Z,3.92
2023-05-05T12:12:55.158Z,3.76
2023-05-05T12:13:52.405Z,3.93
2023-05-05T12:14:52.483Z,3.84
2023-05-05T12:15:52.440Z,3.70
2023-05-05T12:16:52.409Z,3.75
2023-05-05T12:17:52.452Z,3.42
2023-05-05T12:18:52.385Z,2.65
2023-05-05T12:19:52.433Z,1.90
2023-05-05T12:20:52.364Z,1.76
2023-05-05T12:21:52.380Z,1.53
2023-05-05T12:22:52.362Z,2.01
2023-05-05T12:23:52.360Z,2.44
2023-05-05T12:24:53.804Z,2.53
2023-05-05T12:25:52.503Z,2.54
2023-05-05T12:26:52.622Z,2.60
2023-05-05T12:27:52.509Z,2.68
2023-05-05T12:28:52.526Z,1.56
2023-05-05T12:29:52.579Z,1.77
2023-05-05T12:30:53.857Z,1.89
2023-05-05T12:31:52.660Z,1.46
2023-05-05T12:32:52.663Z,1.27
2023-05-05T12:33:52.663Z,1.30
2023-05-05T12:34:52.690Z,1.39
2023-05-05T12:35:52.723Z,1.36
2023-05-05T12:36:52.752Z,1.30
2023-05-05T12:37:52.763Z,1.33
2023-05-05T12:38:52.833Z,1.41
2023-05-05T12:39:52.814Z,1.45
2023-05-05T12:40:52.811Z,1.53
2023-05-05T12:41:52.830Z,1.36
2023-05-05T12:42:52.885Z,1.32
2023-05-05T12:43:52.917Z,0.71
2023-05-05T12:44:52.941Z,0.54
2023-05-05T12:45:53.036Z,0.67
2023-05-05T12:46:53.031Z,0.79
2023-05-05T12:47:53.123Z,0.79
2023-05-05T12:48:53.011Z,0.74
2023-05-05T12:49:53.049Z,0.83
2023-05-05T12:50:53.100Z,0.73
2023-05-05T12:51:53.100Z,0.71
2023-05-05T12:52:53.058Z,0.58
2023-05-05T12:53:53.070Z,0.50
2023-05-05T12:54:54.752Z,0.51
2023-05-05T12:55:53.099Z,0.53
2023-05-05T12:56:53.103Z,0.59
2023-05-05T12:57:53.090Z,0.50
2023-05-05T12:58:53.755Z,0.35
2023-05-05T12:59:53.082Z,0.34
2023-05-05T13:00:54.972Z,0.34
2023-05-05T13:01:53.152Z,0.34
2023-05-05T13:02:53.224Z,0.34
2023-05-05T13:03:53.197Z,0.34
2023-05-05T13:04:53.261Z,0.39
2023-05-05T13:05:53.303Z,0.42
2023-05-05T13:06:54.542Z,0.34
2023-05-05T13:07:53.381Z,0.35
2023-05-05T13:08:53.763Z,0.34
2023-05-05T13:09:53.509Z,0.34
2023-05-05T13:10:53.577Z,0.34
2023-05-05T13:11:53.622Z,0.37
2023-05-05T13:12:53.724Z,0.60
2023-05-05T13:13:53.751Z,0.95
2023-05-05T13:14:53.815Z,1.11
2023-05-05T13:15:53.915Z,1.11